@NikonP510/ver1.0/wgs84 $GPGGA,193604.00,3746.0157,N,12227.4621,W,1,,,-36.9,M,,,,*1B $GPRMC,193604.00,A,3746.0157,N,12227.4621,W,7.6,,070512,,,A*6B $GPGGA,194008.00,3746.0175,N,12227.4438,W,1,,,57.1,M,,,,*3E $GPRMC,194008.00,A,3746.0175,N,12227.4438,W,0.9,,070512,,,A*64 $GPGGA,194023.00,3746.0138,N,12227.4533,W,1,,,0.1,M,,,,*06 $GPRMC,194023.00,A,3746.0138,N,12227.4533,W,0.6,,070512,,,A*61 $GPGGA,194053.00,3746.0149,N,12227.4413,W,1,,,23.1,M,,,,*35 $GPRMC,194053.00,A,3746.0149,N,12227.4413,W,0.7,,070512,,,A*62 $GPGGA,194108.00,3746.0178,N,12227.4361,W,1,,,65.1,M,,,,*38 $GPRMC,194108.00,A,3746.0178,N,12227.4361,W,0.9,,070512,,,A*63 $GPGGA,194123.00,3746.0143,N,12227.4462,W,1,,,81.1,M,,,,*37 $GPRMC,194123.00,A,3746.0143,N,12227.4462,W,0.0,,070512,,,A*6F $GPGGA,194138.00,3746.0147,N,12227.4464,W,1,,,76.1,M,,,,*37 $GPRMC,194138.00,A,3746.0147,N,12227.4464,W,0.0,,070512,,,A*67 $GPGGA,194154.00,3746.0141,N,12227.4460,W,1,,,73.1,M,,,,*3A $GPRMC,194154.00,A,3746.0141,N,12227.4460,W,0.0,,070512,,,A*6F $GPGGA,194209.00,3746.0138,N,12227.4475,W,1,,,70.1,M,,,,*38 $GPRMC,194209.00,A,3746.0138,N,12227.4475,W,2.5,,070512,,,A*69 $GPGGA,194224.00,3746.0196,N,12227.4686,W,1,,,72.1,M,,,,*3F $GPRMC,194224.00,A,3746.0196,N,12227.4686,W,6.6,,070512,,,A*6B $GPGGA,194239.00,3746.0314,N,12227.4899,W,1,,,69.1,M,,,,*31 $GPRMC,194239.00,A,3746.0314,N,12227.4899,W,5.3,,070512,,,A*69 $GPGGA,194254.00,3746.0342,N,12227.5136,W,1,,,73.1,M,,,,*3F $GPRMC,194254.00,A,3746.0342,N,12227.5136,W,6.9,,070512,,,A*65 $GPGGA,194310.00,3746.0575,N,12227.5541,W,1,,,76.1,M,,,,*3D $GPRMC,194310.00,A,3746.0575,N,12227.5541,W,9.8,,070512,,,A*6C $GPGGA,194325.00,3746.0510,N,12227.6267,W,1,,,74.1,M,,,,*3A $GPRMC,194325.00,A,3746.0510,N,12227.6267,W,9.8,,070512,,,A*69 $GPGGA,194340.00,3746.1166,N,12227.5952,W,1,,,61.1,M,,,,*37 $GPRMC,194340.00,A,3746.1166,N,12227.5952,W,9.8,,070512,,,A*60 $GPGGA,194355.00,3746.1644,N,12227.6094,W,1,,,108.1,M,,,,*0A $GPRMC,194355.00,A,3746.1644,N,12227.6094,W,9.8,,070512,,,A*63 $GPGGA,194411.00,3746.1830,N,12227.6198,W,1,,,79.1,M,,,,*3A $GPRMC,194411.00,A,3746.1830,N,12227.6198,W,9.8,,070512,,,A*64 $GPGGA,194426.00,3746.2523,N,12227.6177,W,1,,,76.1,M,,,,*3C $GPRMC,194426.00,A,3746.2523,N,12227.6177,W,11.3,,070512,,,A*5F $GPGGA,194455.00,3746.2747,N,12227.5217,W,1,,,48.1,M,,,,*33 $GPRMC,194455.00,A,3746.2747,N,12227.5217,W,9.8,,070512,,,A*6F $GPGGA,194511.00,3746.2833,N,12227.4949,W,1,,,49.1,M,,,,*3E $GPRMC,194511.00,A,3746.2833,N,12227.4949,W,9.5,,070512,,,A*6E $GPGGA,194525.00,3746.3165,N,12227.5105,W,1,,,51.1,M,,,,*3A $GPRMC,194525.00,A,3746.3165,N,12227.5105,W,7.8,,070512,,,A*60 $GPGGA,194540.00,3746.3578,N,12227.5363,W,1,,,46.1,M,,,,*35 $GPRMC,194540.00,A,3746.3578,N,12227.5363,W,10.3,,070512,,,A*54 $GPGGA,194556.00,3746.3593,N,12227.5499,W,1,,,63.1,M,,,,*32 $GPRMC,194556.00,A,3746.3593,N,12227.5499,W,3.3,,070512,,,A*66 $GPGGA,194610.00,3746.3484,N,12227.5613,W,1,,,73.1,M,,,,*35 $GPRMC,194610.00,A,3746.3484,N,12227.5613,W,5.7,,070512,,,A*62 $GPGGA,194625.00,3746.3489,N,12227.5294,W,1,,,67.1,M,,,,*30 $GPRMC,194625.00,A,3746.3489,N,12227.5294,W,8.4,,070512,,,A*6C $GPGGA,194640.00,3746.3273,N,12227.5095,W,1,,,68.1,M,,,,*3C $GPRMC,194640.00,A,3746.3273,N,12227.5095,W,6.5,,070512,,,A*60 $GPGGA,194655.00,3746.2952,N,12227.5028,W,1,,,52.1,M,,,,*3E $GPRMC,194655.00,A,3746.2952,N,12227.5028,W,7.7,,070512,,,A*68 $GPGGA,194710.00,3746.2811,N,12227.5113,W,1,,,52.1,M,,,,*31 $GPRMC,194710.00,A,3746.2811,N,12227.5113,W,8.1,,070512,,,A*6E $GPGGA,194724.00,3746.2895,N,12227.5406,W,1,,,48.1,M,,,,*30 $GPRMC,194724.00,A,3746.2895,N,12227.5406,W,7.3,,070512,,,A*69 $GPGGA,194739.00,3746.2945,N,12227.5834,W,1,,,49.1,M,,,,*3C $GPRMC,194739.00,A,3746.2945,N,12227.5834,W,6.7,,070512,,,A*61 $GPGGA,194754.00,3746.3020,N,12227.6223,W,1,,,50.1,M,,,,*3B $GPRMC,194754.00,A,3746.3020,N,12227.6223,W,8.4,,070512,,,A*63 $GPGGA,194809.00,3746.3058,N,12227.6626,W,1,,,53.1,M,,,,*31 $GPRMC,194809.00,A,3746.3058,N,12227.6626,W,5.7,,070512,,,A*64 $GPGGA,194824.00,3746.3032,N,12227.7221,W,1,,,79.1,M,,,,*38 $GPRMC,194824.00,A,3746.3032,N,12227.7221,W,9.4,,070512,,,A*6A $GPGGA,194839.00,3746.3288,N,12227.7633,W,1,,,97.1,M,,,,*30 $GPRMC,194839.00,A,3746.3288,N,12227.7633,W,9.4,,070512,,,A*62 $GPGGA,194854.00,3746.3319,N,12227.8262,W,1,,,119.1,M,,,,*0A $GPRMC,194854.00,A,3746.3319,N,12227.8262,W,9.4,,070512,,,A*6F $GPGGA,194909.00,3746.3373,N,12227.8387,W,1,,,57.1,M,,,,*3E $GPRMC,194909.00,A,3746.3373,N,12227.8387,W,9.4,,070512,,,A*60 $GPGGA,194924.00,3746.3655,N,12227.9331,W,1,,,118.1,M,,,,*06 $GPRMC,194924.00,A,3746.3655,N,12227.9331,W,9.4,,070512,,,A*62 $GPGGA,194939.00,3746.3705,N,12227.8860,W,1,,,-22.9,M,,,,*1D $GPRMC,194939.00,A,3746.3705,N,12227.8860,W,7.2,,070512,,,A*6C $GPGGA,194954.00,3746.3589,N,12227.9713,W,1,,,68.1,M,,,,*31 $GPRMC,194954.00,A,3746.3589,N,12227.9713,W,9.5,,070512,,,A*62 $GPGGA,195009.00,3746.3571,N,12228.0513,W,1,,,106.1,M,,,,*0B $GPRMC,195009.00,A,3746.3571,N,12228.0513,W,9.3,,070512,,,A*67 $GPGGA,195024.00,3746.3538,N,12228.1167,W,1,,,140.1,M,,,,*0D $GPRMC,195024.00,A,3746.3538,N,12228.1167,W,11.5,,070512,,,A*5C $GPGGA,195039.00,3746.3480,N,12228.1736,W,1,,,138.1,M,,,,*0E $GPRMC,195039.00,A,3746.3480,N,12228.1736,W,11.5,,070512,,,A*50 $GPGGA,195054.00,3746.3284,N,12228.2334,W,1,,,202.1,M,,,,*08 $GPRMC,195054.00,A,3746.3284,N,12228.2334,W,11.5,,070512,,,A*5C $GPGGA,195108.00,3746.2999,N,12228.2889,W,1,,,244.1,M,,,,*09 $GPRMC,195108.00,A,3746.2999,N,12228.2889,W,14.3,,070512,,,A*5C $GPGGA,195123.00,3746.2729,N,12228.2979,W,1,,,147.1,M,,,,*0B $GPRMC,195123.00,A,3746.2729,N,12228.2979,W,7.4,,070512,,,A*6B $GPGGA,195138.00,3746.2653,N,12228.2996,W,1,,,95.1,M,,,,*32 $GPRMC,195138.00,A,3746.2653,N,12228.2996,W,7.4,,070512,,,A*6C $GPGGA,195153.00,3746.2424,N,12228.3422,W,1,,,126.1,M,,,,*07 $GPRMC,195153.00,A,3746.2424,N,12228.3422,W,7.4,,070512,,,A*60 $GPGGA,195208.00,3746.2484,N,12228.4831,W,1,,,323.1,M,,,,*0E $GPRMC,195208.00,A,3746.2484,N,12228.4831,W,7.4,,070512,,,A*6E $GPGGA,195223.00,3746.2610,N,12228.4889,W,1,,,220.1,M,,,,*09 $GPRMC,195223.00,A,3746.2610,N,12228.4889,W,7.4,,070512,,,A*6B $GPGGA,195238.00,3746.2840,N,12228.4729,W,1,,,105.1,M,,,,*09 $GPRMC,195238.00,A,3746.2840,N,12228.4729,W,7.4,,070512,,,A*6F $GPGGA,195253.00,3746.3068,N,12228.5521,W,1,,,131.1,M,,,,*0B $GPRMC,195253.00,A,3746.3068,N,12228.5521,W,9.9,,070512,,,A*69 $GPGGA,195308.00,3746.3114,N,12228.6000,W,1,,,100.1,M,,,,*09 $GPRMC,195308.00,A,3746.3114,N,12228.6000,W,8.0,,070512,,,A*61 $GPGGA,195323.00,3746.2951,N,12228.6517,W,1,,,127.1,M,,,,*0E $GPRMC,195323.00,A,3746.2951,N,12228.6517,W,8.0,,070512,,,A*63 $GPGGA,195338.00,3746.2856,N,12228.6893,W,1,,,120.1,M,,,,*04 $GPRMC,195338.00,A,3746.2856,N,12228.6893,W,8.0,,070512,,,A*6E $GPGGA,195353.00,3746.2835,N,12228.6963,W,1,,,138.1,M,,,,*0B $GPRMC,195353.00,A,3746.2835,N,12228.6963,W,1.5,,070512,,,A*64 $GPGGA,195408.00,3746.2827,N,12228.6975,W,1,,,143.1,M,,,,*0A $GPRMC,195408.00,A,3746.2827,N,12228.6975,W,0.3,,070512,,,A*6E $GPGGA,195424.00,3746.2828,N,12228.7024,W,1,,,123.1,M,,,,*01 $GPRMC,195424.00,A,3746.2828,N,12228.7024,W,0.2,,070512,,,A*62 $GPGGA,195438.00,3746.2772,N,12228.6990,W,1,,,135.1,M,,,,*0C $GPRMC,195438.00,A,3746.2772,N,12228.6990,W,0.5,,070512,,,A*6F $GPGGA,195453.00,3746.2774,N,12228.7019,W,1,,,187.1,M,,,,*07 $GPRMC,195453.00,A,3746.2774,N,12228.7019,W,0.4,,070512,,,A*6C $GPGGA,195657.00,3746.2634,N,12228.6230,W,1,,,144.1,M,,,,*03 $GPRMC,195657.00,A,3746.2634,N,12228.6230,W,0.0,,070512,,,A*63 $GPGGA,195712.00,3746.2859,N,12228.6362,W,1,,,145.1,M,,,,*01 $GPRMC,195712.00,A,3746.2859,N,12228.6362,W,0.0,,070512,,,A*60 $GPGGA,195727.00,3746.2823,N,12228.6402,W,1,,,144.1,M,,,,*0A $GPRMC,195727.00,A,3746.2823,N,12228.6402,W,0.0,,070512,,,A*6A $GPGGA,195742.00,3746.2720,N,12228.6351,W,1,,,144.1,M,,,,*04 $GPRMC,195742.00,A,3746.2720,N,12228.6351,W,0.0,,070512,,,A*64 $GPGGA,195757.00,3746.2760,N,12228.6407,W,1,,,145.1,M,,,,*01 $GPRMC,195757.00,A,3746.2760,N,12228.6407,W,0.0,,070512,,,A*60 $GPGGA,200541.00,3746.1398,N,12229.8067,W,1,,,17.1,M,,,,*30 $GPRMC,200541.00,A,3746.1398,N,12229.8067,W,11.7,,070512,,,A*50 $GPGGA,200556.00,3746.1406,N,12229.8765,W,1,,,14.1,M,,,,*30 $GPRMC,200556.00,A,3746.1406,N,12229.8765,W,11.4,,070512,,,A*50 $GPGGA,200612.00,3746.1235,N,12229.9368,W,1,,,12.1,M,,,,*3B $GPRMC,200612.00,A,3746.1235,N,12229.9368,W,12.6,,070512,,,A*5C $GPGGA,200642.00,3746.0904,N,12230.0426,W,1,,,9.1,M,,,,*00 $GPRMC,200642.00,A,3746.0904,N,12230.0426,W,10.9,,070512,,,A*50 $GPGGA,200658.00,3746.0747,N,12230.1047,W,1,,,7.1,M,,,,*0E $GPRMC,200658.00,A,3746.0747,N,12230.1047,W,12.6,,070512,,,A*5D $GPGGA,200713.00,3746.0549,N,12230.1603,W,1,,,6.1,M,,,,*0B $GPRMC,200713.00,A,3746.0549,N,12230.1603,W,10.5,,070512,,,A*58 $GPGGA,200728.00,3746.0411,N,12230.2073,W,1,,,1.1,M,,,,*0A $GPRMC,200728.00,A,3746.0411,N,12230.2073,W,10.5,,070512,,,A*5E $GPGGA,200743.00,3746.0289,N,12230.2654,W,1,,,9.1,M,,,,*0B $GPRMC,200743.00,A,3746.0289,N,12230.2654,W,10.5,,070512,,,A*57 $GPGGA,200758.00,3746.0227,N,12230.3167,W,1,,,7.1,M,,,,*0D $GPRMC,200758.00,A,3746.0227,N,12230.3167,W,9.8,,070512,,,A*6A $GPGGA,200829.00,3746.0288,N,12230.4311,W,1,,,-12.9,M,,,,*14 $GPRMC,200829.00,A,3746.0288,N,12230.4311,W,11.9,,070512,,,A*5A $GPGGA,200844.00,3746.1190,N,12230.4674,W,1,,,-3.9,M,,,,*22 $GPRMC,200844.00,A,3746.1190,N,12230.4674,W,17.9,,070512,,,A*5A $GPGGA,200859.00,3746.1622,N,12230.5051,W,1,,,-18.9,M,,,,*1A $GPRMC,200859.00,A,3746.1622,N,12230.5051,W,11.9,,070512,,,A*5E $GPGGA,200914.00,3746.1886,N,12230.5503,W,1,,,-10.9,M,,,,*18 $GPRMC,200914.00,A,3746.1886,N,12230.5503,W,12.7,,070512,,,A*59 $GPGGA,200928.00,3746.1955,N,12230.5572,W,1,,,-27.9,M,,,,*1A $GPRMC,200928.00,A,3746.1955,N,12230.5572,W,2.7,,070512,,,A*6E $GPGGA,200944.00,3746.1980,N,12230.5410,W,1,,,-23.9,M,,,,*19 $GPRMC,200944.00,A,3746.1980,N,12230.5410,W,4.6,,070512,,,A*6E $GPGGA,200959.00,3746.2032,N,12230.5612,W,1,,,-2.9,M,,,,*25 $GPRMC,200959.00,A,3746.2032,N,12230.5612,W,4.6,,070512,,,A*61 $GPGGA,201014.00,3746.2194,N,12230.6028,W,1,,,-2.9,M,,,,*25 $GPRMC,201014.00,A,3746.2194,N,12230.6028,W,9.4,,070512,,,A*6E $GPGGA,201029.00,3746.2277,N,12230.6495,W,1,,,-14.9,M,,,,*10 $GPRMC,201029.00,A,3746.2277,N,12230.6495,W,3.1,,070512,,,A*63 $GPGGA,201044.00,3746.2277,N,12230.6505,W,1,,,-14.9,M,,,,*13 $GPRMC,201044.00,A,3746.2277,N,12230.6505,W,0.0,,070512,,,A*62 $GPGGA,201059.00,3746.2278,N,12230.6497,W,1,,,-17.9,M,,,,*19 $GPRMC,201059.00,A,3746.2278,N,12230.6497,W,0.3,,070512,,,A*68 $GPGGA,201114.00,3746.2243,N,12230.6540,W,1,,,-19.9,M,,,,*1C $GPRMC,201114.00,A,3746.2243,N,12230.6540,W,6.2,,070512,,,A*64 $GPGGA,201143.00,3746.1514,N,12230.6345,W,1,,,-31.9,M,,,,*11 $GPRMC,201143.00,A,3746.1514,N,12230.6345,W,9.8,,070512,,,A*66 $GPGGA,201158.00,3746.1118,N,12230.6297,W,1,,,-40.9,M,,,,*1B $GPRMC,201158.00,A,3746.1118,N,12230.6297,W,10.3,,070512,,,A*59 $GPGGA,201213.00,3746.0718,N,12230.6203,W,1,,,-29.9,M,,,,*12 $GPRMC,201213.00,A,3746.0718,N,12230.6203,W,10.6,,070512,,,A*5A $GPGGA,201228.00,3746.0309,N,12230.6122,W,1,,,-38.9,M,,,,*1E $GPRMC,201228.00,A,3746.0309,N,12230.6122,W,10.4,,070512,,,A*54 $GPGGA,201242.00,3745.9901,N,12230.6142,W,1,,,-38.9,M,,,,*1C $GPRMC,201242.00,A,3745.9901,N,12230.6142,W,8.4,,070512,,,A*6F $GPGGA,201257.00,3745.9565,N,12230.6080,W,1,,,-26.9,M,,,,*16 $GPRMC,201257.00,A,3745.9565,N,12230.6080,W,9.3,,070512,,,A*6C $GPGGA,201312.00,3745.9180,N,12230.6044,W,1,,,-33.9,M,,,,*15 $GPRMC,201312.00,A,3745.9180,N,12230.6044,W,9.4,,070512,,,A*6C $GPGGA,201326.00,3745.8845,N,12230.6092,W,1,,,-21.9,M,,,,*1B $GPRMC,201326.00,A,3745.8845,N,12230.6092,W,8.4,,070512,,,A*60 $GPGGA,201341.00,3745.8544,N,12230.6135,W,1,,,-27.9,M,,,,*1C $GPRMC,201341.00,A,3745.8544,N,12230.6135,W,3.6,,070512,,,A*68 $GPGGA,201355.00,3745.8541,N,12230.6149,W,1,,,-22.9,M,,,,*12 $GPRMC,201355.00,A,3745.8541,N,12230.6149,W,0.0,,070512,,,A*66 $GPGGA,201411.00,3745.8541,N,12230.6149,W,1,,,-22.9,M,,,,*15 $GPRMC,201411.00,A,3745.8541,N,12230.6149,W,0.0,,070512,,,A*61 $GPGGA,201426.00,3745.8541,N,12230.6149,W,1,,,-22.9,M,,,,*11 $GPRMC,201426.00,A,3745.8541,N,12230.6149,W,0.0,,070512,,,A*65 $GPGGA,201441.00,3745.8519,N,12230.6138,W,1,,,-18.9,M,,,,*12 $GPRMC,201441.00,A,3745.8519,N,12230.6138,W,0.5,,070512,,,A*6A $GPGGA,201455.00,3745.8362,N,12230.6013,W,1,,,-16.9,M,,,,*1B $GPRMC,201455.00,A,3745.8362,N,12230.6013,W,7.1,,070512,,,A*6E $GPGGA,201510.00,3745.7993,N,12230.6047,W,1,,,-15.9,M,,,,*12 $GPRMC,201510.00,A,3745.7993,N,12230.6047,W,8.5,,070512,,,A*6F $GPGGA,201525.00,3745.7639,N,12230.5994,W,1,,,-27.9,M,,,,*1E $GPRMC,201525.00,A,3745.7639,N,12230.5994,W,7.6,,070512,,,A*6E $GPGGA,201540.00,3745.7285,N,12230.5954,W,1,,,-25.9,M,,,,*10 $GPRMC,201540.00,A,3745.7285,N,12230.5954,W,9.4,,070512,,,A*6E $GPGGA,201555.00,3745.6933,N,12230.5898,W,1,,,-18.9,M,,,,*1C $GPRMC,201555.00,A,3745.6933,N,12230.5898,W,7.5,,070512,,,A*63 $GPGGA,201609.00,3745.6650,N,12230.5916,W,1,,,-32.9,M,,,,*13 $GPRMC,201609.00,A,3745.6650,N,12230.5916,W,7.9,,070512,,,A*68 $GPGGA,201624.00,3745.6309,N,12230.5851,W,1,,,-18.9,M,,,,*1F $GPRMC,201624.00,A,3745.6309,N,12230.5851,W,8.2,,070512,,,A*68 $GPGGA,201638.00,3745.5987,N,12230.5804,W,1,,,-26.9,M,,,,*10 $GPRMC,201638.00,A,3745.5987,N,12230.5804,W,8.6,,070512,,,A*6E $GPGGA,201654.00,3745.5607,N,12230.5752,W,1,,,-23.9,M,,,,*14 $GPRMC,201654.00,A,3745.5607,N,12230.5752,W,7.8,,070512,,,A*6E $GPGGA,201708.00,3745.5273,N,12230.5695,W,1,,,-31.9,M,,,,*12 $GPRMC,201708.00,A,3745.5273,N,12230.5695,W,8.1,,070512,,,A*6D $GPGGA,201723.00,3745.4949,N,12230.5659,W,1,,,-34.9,M,,,,*1D $GPRMC,201723.00,A,3745.4949,N,12230.5659,W,8.2,,070512,,,A*64 $GPGGA,201738.00,3745.4623,N,12230.5622,W,1,,,-16.9,M,,,,*18 $GPRMC,201738.00,A,3745.4623,N,12230.5622,W,8.1,,070512,,,A*62 $GPGGA,201753.00,3745.4293,N,12230.5571,W,1,,,-29.9,M,,,,*13 $GPRMC,201753.00,A,3745.4293,N,12230.5571,W,7.5,,070512,,,A*6E $GPGGA,201807.00,3745.3951,N,12230.5494,W,1,,,-27.9,M,,,,*1B $GPRMC,201807.00,A,3745.3951,N,12230.5494,W,10.3,,070512,,,A*58 $GPGGA,201822.00,3745.3564,N,12230.5529,W,1,,,-33.9,M,,,,*14 $GPRMC,201822.00,A,3745.3564,N,12230.5529,W,7.9,,070512,,,A*6E $GPGGA,201837.00,3745.3228,N,12230.5434,W,1,,,-36.9,M,,,,*17 $GPRMC,201837.00,A,3745.3228,N,12230.5434,W,7.6,,070512,,,A*67 $GPGGA,201852.00,3745.2907,N,12230.5346,W,1,,,-40.9,M,,,,*10 $GPRMC,201852.00,A,3745.2907,N,12230.5346,W,9.2,,070512,,,A*6B $GPGGA,201907.00,3745.2571,N,12230.5292,W,1,,,-33.9,M,,,,*10 $GPRMC,201907.00,A,3745.2571,N,12230.5292,W,7.5,,070512,,,A*66 $GPGGA,201922.00,3745.2272,N,12230.5250,W,1,,,-32.9,M,,,,*1C $GPRMC,201922.00,A,3745.2272,N,12230.5250,W,7.5,,070512,,,A*6B $GPGGA,201937.00,3745.1950,N,12230.5241,W,1,,,-27.9,M,,,,*14 $GPRMC,201937.00,A,3745.1950,N,12230.5241,W,8.3,,070512,,,A*6E $GPGGA,201952.00,3745.1565,N,12230.5146,W,1,,,-40.9,M,,,,*18 $GPRMC,201952.00,A,3745.1565,N,12230.5146,W,9.9,,070512,,,A*68 $GPGGA,202006.00,3745.1191,N,12230.5161,W,1,,,-37.9,M,,,,*19 $GPRMC,202006.00,A,3745.1191,N,12230.5161,W,8.4,,070512,,,A*65 $GPGGA,202021.00,3745.0903,N,12230.5092,W,1,,,-18.9,M,,,,*1E $GPRMC,202021.00,A,3745.0903,N,12230.5092,W,7.6,,070512,,,A*62 $GPGGA,202036.00,3745.0607,N,12230.5081,W,1,,,-22.9,M,,,,*18 $GPRMC,202036.00,A,3745.0607,N,12230.5081,W,8.4,,070512,,,A*60 $GPGGA,202051.00,3745.0295,N,12230.5068,W,1,,,-24.9,M,,,,*17 $GPRMC,202051.00,A,3745.0295,N,12230.5068,W,7.2,,070512,,,A*60 $GPGGA,202106.00,3744.9963,N,12230.5003,W,1,,,-32.0,M,,,,*1D $GPRMC,202106.00,A,3744.9963,N,12230.5003,W,8.4,,070512,,,A*6D $GPGGA,202120.00,3744.9605,N,12230.4959,W,1,,,-19.0,M,,,,*18 $GPRMC,202120.00,A,3744.9605,N,12230.4959,W,9.7,,070512,,,A*63 $GPGGA,202135.00,3744.9194,N,12230.4921,W,1,,,-16.0,M,,,,*13 $GPRMC,202135.00,A,3744.9194,N,12230.4921,W,7.8,,070512,,,A*66 $GPGGA,202149.00,3744.8907,N,12230.4866,W,1,,,-18.0,M,,,,*17 $GPRMC,202149.00,A,3744.8907,N,12230.4866,W,7.0,,070512,,,A*64 $GPGGA,202204.00,3744.8598,N,12230.4819,W,1,,,-21.0,M,,,,*15 $GPRMC,202204.00,A,3744.8598,N,12230.4819,W,7.5,,070512,,,A*69 $GPGGA,202218.00,3744.8257,N,12230.4775,W,1,,,-24.0,M,,,,*1C $GPRMC,202218.00,A,3744.8257,N,12230.4775,W,8.4,,070512,,,A*6B $GPGGA,202233.00,3744.7948,N,12230.4714,W,1,,,-25.0,M,,,,*19 $GPRMC,202233.00,A,3744.7948,N,12230.4714,W,7.1,,070512,,,A*65 $GPGGA,202248.00,3744.7621,N,12230.4709,W,1,,,-20.0,M,,,,*1C $GPRMC,202248.00,A,3744.7621,N,12230.4709,W,7.2,,070512,,,A*66 $GPGGA,202302.00,3744.7330,N,12230.4681,W,1,,,-24.0,M,,,,*13 $GPRMC,202302.00,A,3744.7330,N,12230.4681,W,9.2,,070512,,,A*63 $GPGGA,202317.00,3744.6997,N,12230.4614,W,1,,,-23.0,M,,,,*1A $GPRMC,202317.00,A,3744.6997,N,12230.4614,W,7.8,,070512,,,A*69 $GPGGA,202332.00,3744.6690,N,12230.4602,W,1,,,-32.0,M,,,,*12 $GPRMC,202332.00,A,3744.6690,N,12230.4602,W,7.6,,070512,,,A*6F $GPGGA,202347.00,3744.6358,N,12230.4513,W,1,,,-29.0,M,,,,*18 $GPRMC,202347.00,A,3744.6358,N,12230.4513,W,7.6,,070512,,,A*6F $GPGGA,202402.00,3744.6036,N,12230.4476,W,1,,,-17.0,M,,,,*1A $GPRMC,202402.00,A,3744.6036,N,12230.4476,W,8.3,,070512,,,A*6A $GPGGA,202417.00,3744.5703,N,12230.4437,W,1,,,-22.0,M,,,,*1F $GPRMC,202417.00,A,3744.5703,N,12230.4437,W,7.3,,070512,,,A*66 $GPGGA,202432.00,3744.5378,N,12230.4392,W,1,,,-30.0,M,,,,*1B $GPRMC,202432.00,A,3744.5378,N,12230.4392,W,7.7,,070512,,,A*65 $GPGGA,202447.00,3744.5010,N,12230.4355,W,1,,,-29.0,M,,,,*17 $GPRMC,202447.00,A,3744.5010,N,12230.4355,W,9.2,,070512,,,A*6A $GPGGA,202503.00,3744.4642,N,12230.4314,W,1,,,-26.0,M,,,,*1C $GPRMC,202503.00,A,3744.4642,N,12230.4314,W,7.9,,070512,,,A*6B $GPGGA,202518.00,3744.4329,N,12230.4267,W,1,,,-25.0,M,,,,*18 $GPRMC,202518.00,A,3744.4329,N,12230.4267,W,7.5,,070512,,,A*60 $GPGGA,202533.00,3744.3964,N,12230.4208,W,1,,,-25.0,M,,,,*1C $GPRMC,202533.00,A,3744.3964,N,12230.4208,W,9.2,,070512,,,A*6D $GPGGA,202548.00,3744.3627,N,12230.4175,W,1,,,-24.0,M,,,,*10 $GPRMC,202548.00,A,3744.3627,N,12230.4175,W,7.3,,070512,,,A*6F $GPGGA,202603.00,3744.3310,N,12230.4166,W,1,,,-28.0,M,,,,*13 $GPRMC,202603.00,A,3744.3310,N,12230.4166,W,7.5,,070512,,,A*66 $GPGGA,202618.00,3744.3055,N,12230.4126,W,1,,,-28.0,M,,,,*1F $GPRMC,202618.00,A,3744.3055,N,12230.4126,W,8.2,,070512,,,A*62 $GPGGA,202632.00,3744.2705,N,12230.4059,W,1,,,-18.0,M,,,,*1E $GPRMC,202632.00,A,3744.2705,N,12230.4059,W,8.7,,070512,,,A*65 $GPGGA,202647.00,3744.2375,N,12230.4012,W,1,,,-21.0,M,,,,*1A $GPRMC,202647.00,A,3744.2375,N,12230.4012,W,7.8,,070512,,,A*6B $GPGGA,202702.00,3744.2012,N,12230.3977,W,1,,,-22.0,M,,,,*16 $GPRMC,202702.00,A,3744.2012,N,12230.3977,W,8.0,,070512,,,A*63 $GPGGA,202717.00,3744.1661,N,12230.3882,W,1,,,-27.0,M,,,,*1D $GPRMC,202717.00,A,3744.1661,N,12230.3882,W,9.5,,070512,,,A*69 $GPGGA,202732.00,3744.1421,N,12230.3918,W,1,,,-26.0,M,,,,*1F $GPRMC,202732.00,A,3744.1421,N,12230.3918,W,3.3,,070512,,,A*66 $GPGGA,202746.00,3744.1389,N,12230.3933,W,1,,,-22.0,M,,,,*14 $GPRMC,202746.00,A,3744.1389,N,12230.3933,W,0.3,,070512,,,A*6A $GPGGA,202801.00,3744.1432,N,12230.3913,W,1,,,-24.0,M,,,,*1B $GPRMC,202801.00,A,3744.1432,N,12230.3913,W,1.1,,070512,,,A*60 $GPGGA,202816.00,3744.1394,N,12230.3941,W,1,,,-28.0,M,,,,*1D $GPRMC,202816.00,A,3744.1394,N,12230.3941,W,0.1,,070512,,,A*6B $GPGGA,202831.00,3744.1384,N,12230.3920,W,1,,,-15.0,M,,,,*10 $GPRMC,202831.00,A,3744.1384,N,12230.3920,W,0.0,,070512,,,A*69 $GPGGA,202845.00,3744.1401,N,12230.4020,W,1,,,-18.0,M,,,,*1A $GPRMC,202845.00,A,3744.1401,N,12230.4020,W,4.2,,070512,,,A*68 $GPGGA,202900.00,3744.1382,N,12230.4225,W,1,,,-15.0,M,,,,*1C $GPRMC,202900.00,A,3744.1382,N,12230.4225,W,3.7,,070512,,,A*61 $GPGGA,202915.00,3744.1200,N,12230.4341,W,1,,,-19.0,M,,,,*1C $GPRMC,202915.00,A,3744.1200,N,12230.4341,W,3.2,,070512,,,A*68 $GPGGA,202930.00,3744.1233,N,12230.4406,W,1,,,-17.0,M,,,,*11 $GPRMC,202930.00,A,3744.1233,N,12230.4406,W,0.6,,070512,,,A*6C $GPGGA,202944.00,3744.1316,N,12230.4300,W,1,,,-14.0,M,,,,*16 $GPRMC,202944.00,A,3744.1316,N,12230.4300,W,0.4,,070512,,,A*6A $GPGGA,202959.00,3744.1246,N,12230.4309,W,1,,,-22.0,M,,,,*12 $GPRMC,202959.00,A,3744.1246,N,12230.4309,W,0.3,,070512,,,A*6C $GPGGA,203013.00,3744.1282,N,12230.4347,W,1,,,-25.0,M,,,,*11 $GPRMC,203013.00,A,3744.1282,N,12230.4347,W,0.6,,070512,,,A*6D $GPGGA,203128.00,3744.1278,N,12230.4364,W,1,,,24.0,M,,,,*30 $GPRMC,203128.00,A,3744.1278,N,12230.4364,W,0.6,,070512,,,A*60 $GPGGA,203143.00,3744.1252,N,12230.4407,W,1,,,-13.0,M,,,,*1E $GPRMC,203143.00,A,3744.1252,N,12230.4407,W,0.0,,070512,,,A*61 $GPGGA,203158.00,3744.1258,N,12230.4388,W,1,,,-16.0,M,,,,*1B $GPRMC,203158.00,A,3744.1258,N,12230.4388,W,0.0,,070512,,,A*61 $GPGGA,203213.00,3744.1261,N,12230.4378,W,1,,,-18.0,M,,,,*1C $GPRMC,203213.00,A,3744.1261,N,12230.4378,W,0.0,,070512,,,A*68 $GPGGA,203228.00,3744.1260,N,12230.4374,W,1,,,-19.0,M,,,,*18 $GPRMC,203228.00,A,3744.1260,N,12230.4374,W,0.0,,070512,,,A*6D $GPGGA,203243.00,3744.1261,N,12230.4371,W,1,,,-19.0,M,,,,*11 $GPRMC,203243.00,A,3744.1261,N,12230.4371,W,0.0,,070512,,,A*64 $GPGGA,203258.00,3744.1261,N,12230.4369,W,1,,,-20.0,M,,,,*18 $GPRMC,203258.00,A,3744.1261,N,12230.4369,W,0.0,,070512,,,A*67 $GPGGA,203313.00,3744.1261,N,12230.4368,W,1,,,-20.0,M,,,,*17 $GPRMC,203313.00,A,3744.1261,N,12230.4368,W,0.0,,070512,,,A*68 $GPGGA,203329.00,3744.1261,N,12230.4368,W,1,,,-20.0,M,,,,*1E $GPRMC,203329.00,A,3744.1261,N,12230.4368,W,0.0,,070512,,,A*61 $GPGGA,203344.00,3744.1261,N,12230.4368,W,1,,,-20.0,M,,,,*15 $GPRMC,203344.00,A,3744.1261,N,12230.4368,W,0.0,,070512,,,A*6A $GPGGA,203359.00,3744.1260,N,12230.4368,W,1,,,-20.0,M,,,,*18 $GPRMC,203359.00,A,3744.1260,N,12230.4368,W,0.0,,070512,,,A*67 $GPGGA,203414.00,3744.1259,N,12230.4369,W,1,,,-19.0,M,,,,*17 $GPRMC,203414.00,A,3744.1259,N,12230.4369,W,0.0,,070512,,,A*62 $GPGGA,203429.00,3744.1259,N,12230.4370,W,1,,,-19.0,M,,,,*11 $GPRMC,203429.00,A,3744.1259,N,12230.4370,W,0.0,,070512,,,A*64 $GPGGA,203444.00,3744.1259,N,12230.4370,W,1,,,-19.0,M,,,,*1A $GPRMC,203444.00,A,3744.1259,N,12230.4370,W,0.0,,070512,,,A*6F $GPGGA,203459.00,3744.1259,N,12230.4370,W,1,,,-19.0,M,,,,*16 $GPRMC,203459.00,A,3744.1259,N,12230.4370,W,0.0,,070512,,,A*63 $GPGGA,203514.00,3744.1259,N,12230.4370,W,1,,,-19.0,M,,,,*1E $GPRMC,203514.00,A,3744.1259,N,12230.4370,W,0.0,,070512,,,A*6B $GPGGA,203529.00,3744.1259,N,12230.4370,W,1,,,-19.0,M,,,,*10 $GPRMC,203529.00,A,3744.1259,N,12230.4370,W,0.0,,070512,,,A*65 $GPGGA,203544.00,3744.1259,N,12230.4370,W,1,,,-19.0,M,,,,*1B $GPRMC,203544.00,A,3744.1259,N,12230.4370,W,0.0,,070512,,,A*6E $GPGGA,203559.00,3744.1259,N,12230.4370,W,1,,,-19.0,M,,,,*17 $GPRMC,203559.00,A,3744.1259,N,12230.4370,W,0.0,,070512,,,A*62 $GPGGA,203614.00,3744.1259,N,12230.4370,W,1,,,-19.0,M,,,,*1D $GPRMC,203614.00,A,3744.1259,N,12230.4370,W,0.0,,070512,,,A*68 $GPGGA,203629.00,3744.1259,N,12230.4370,W,1,,,-19.0,M,,,,*13 $GPRMC,203629.00,A,3744.1259,N,12230.4370,W,0.0,,070512,,,A*66 $GPGGA,203645.00,3744.1259,N,12230.4370,W,1,,,-19.0,M,,,,*19 $GPRMC,203645.00,A,3744.1259,N,12230.4370,W,0.0,,070512,,,A*6C $GPGGA,203700.00,3744.1258,N,12230.4370,W,1,,,-19.0,M,,,,*18 $GPRMC,203700.00,A,3744.1258,N,12230.4370,W,0.0,,070512,,,A*6D $GPGGA,203715.00,3744.1258,N,12230.4370,W,1,,,-19.0,M,,,,*1C $GPRMC,203715.00,A,3744.1258,N,12230.4370,W,0.0,,070512,,,A*69 $GPGGA,203730.00,3744.1258,N,12230.4370,W,1,,,-19.0,M,,,,*1B $GPRMC,203730.00,A,3744.1258,N,12230.4370,W,0.0,,070512,,,A*6E $GPGGA,203745.00,3744.1258,N,12230.4370,W,1,,,-19.0,M,,,,*19 $GPRMC,203745.00,A,3744.1258,N,12230.4370,W,0.0,,070512,,,A*6C $GPGGA,203800.00,3744.1258,N,12230.4370,W,1,,,-18.0,M,,,,*16 $GPRMC,203800.00,A,3744.1258,N,12230.4370,W,0.0,,070512,,,A*62 $GPGGA,203815.00,3744.1258,N,12230.4370,W,1,,,-18.0,M,,,,*12 $GPRMC,203815.00,A,3744.1258,N,12230.4370,W,0.0,,070512,,,A*66 $GPGGA,203830.00,3744.1258,N,12230.4370,W,1,,,-18.0,M,,,,*15 $GPRMC,203830.00,A,3744.1258,N,12230.4370,W,0.0,,070512,,,A*61 $GPGGA,203846.00,3744.1258,N,12230.4370,W,1,,,-18.0,M,,,,*14 $GPRMC,203846.00,A,3744.1258,N,12230.4370,W,0.0,,070512,,,A*60 $GPGGA,203901.00,3744.1258,N,12230.4370,W,1,,,-18.0,M,,,,*16 $GPRMC,203901.00,A,3744.1258,N,12230.4370,W,0.0,,070512,,,A*62 $GPGGA,203916.00,3744.1258,N,12230.4370,W,1,,,-18.0,M,,,,*10 $GPRMC,203916.00,A,3744.1258,N,12230.4370,W,0.0,,070512,,,A*64 $GPGGA,203931.00,3744.1258,N,12230.4370,W,1,,,-18.0,M,,,,*15 $GPRMC,203931.00,A,3744.1258,N,12230.4370,W,0.0,,070512,,,A*61 $GPGGA,203946.00,3744.1258,N,12230.4370,W,1,,,-18.0,M,,,,*15 $GPRMC,203946.00,A,3744.1258,N,12230.4370,W,0.0,,070512,,,A*61 $GPGGA,204002.00,3744.1258,N,12230.4370,W,1,,,-18.0,M,,,,*1B $GPRMC,204002.00,A,3744.1258,N,12230.4370,W,0.0,,070512,,,A*6F $GPGGA,204017.00,3744.1258,N,12230.4370,W,1,,,-18.0,M,,,,*1F $GPRMC,204017.00,A,3744.1258,N,12230.4370,W,0.0,,070512,,,A*6B $GPGGA,204032.00,3744.1258,N,12230.4370,W,1,,,-18.0,M,,,,*18 $GPRMC,204032.00,A,3744.1258,N,12230.4370,W,0.0,,070512,,,A*6C $GPGGA,204047.00,3744.1258,N,12230.4370,W,1,,,-18.0,M,,,,*1A $GPRMC,204047.00,A,3744.1258,N,12230.4370,W,0.0,,070512,,,A*6E $GPGGA,204102.00,3744.1258,N,12230.4370,W,1,,,-18.0,M,,,,*1A $GPRMC,204102.00,A,3744.1258,N,12230.4370,W,0.0,,070512,,,A*6E $GPGGA,204117.00,3744.1258,N,12230.4370,W,1,,,-18.0,M,,,,*1E $GPRMC,204117.00,A,3744.1258,N,12230.4370,W,0.0,,070512,,,A*6A $GPGGA,204132.00,3744.1258,N,12230.4370,W,1,,,-18.0,M,,,,*19 $GPRMC,204132.00,A,3744.1258,N,12230.4370,W,0.0,,070512,,,A*6D $GPGGA,204148.00,3744.1258,N,12230.4370,W,1,,,-18.0,M,,,,*14 $GPRMC,204148.00,A,3744.1258,N,12230.4370,W,0.0,,070512,,,A*60 $GPGGA,204203.00,3744.1258,N,12230.4370,W,1,,,-18.0,M,,,,*18 $GPRMC,204203.00,A,3744.1258,N,12230.4370,W,0.0,,070512,,,A*6C $GPGGA,204218.00,3744.1258,N,12230.4370,W,1,,,-18.0,M,,,,*12 $GPRMC,204218.00,A,3744.1258,N,12230.4370,W,0.0,,070512,,,A*66 $GPGGA,204233.00,3744.1258,N,12230.4370,W,1,,,-18.0,M,,,,*1B $GPRMC,204233.00,A,3744.1258,N,12230.4370,W,0.0,,070512,,,A*6F $GPGGA,204249.00,3744.1258,N,12230.4370,W,1,,,-18.0,M,,,,*16 $GPRMC,204249.00,A,3744.1258,N,12230.4370,W,0.0,,070512,,,A*62 $GPGGA,204304.00,3744.1257,N,12230.4370,W,1,,,-18.0,M,,,,*11 $GPRMC,204304.00,A,3744.1257,N,12230.4370,W,0.0,,070512,,,A*65 $GPGGA,204319.00,3744.1257,N,12230.4370,W,1,,,-18.0,M,,,,*1D $GPRMC,204319.00,A,3744.1257,N,12230.4370,W,0.0,,070512,,,A*69 $GPGGA,204335.00,3744.1257,N,12230.4370,W,1,,,-18.0,M,,,,*13 $GPRMC,204335.00,A,3744.1257,N,12230.4370,W,0.0,,070512,,,A*67 $GPGGA,204358.00,3744.1251,N,12230.4333,W,1,,,-17.0,M,,,,*16 $GPRMC,204358.00,A,3744.1251,N,12230.4333,W,0.2,,070512,,,A*6F $GPGGA,204413.00,3744.1262,N,12230.4330,W,1,,,-21.0,M,,,,*18 $GPRMC,204413.00,A,3744.1262,N,12230.4330,W,0.4,,070512,,,A*62 $GPGGA,204428.00,3744.1255,N,12230.4335,W,1,,,-20.0,M,,,,*10 $GPRMC,204428.00,A,3744.1255,N,12230.4335,W,0.2,,070512,,,A*6D $GPGGA,204442.00,3744.1267,N,12230.4389,W,1,,,-20.0,M,,,,*1A $GPRMC,204442.00,A,3744.1267,N,12230.4389,W,0.1,,070512,,,A*64 $GPGGA,204457.00,3744.1253,N,12230.4402,W,1,,,-10.0,M,,,,*1E $GPRMC,204457.00,A,3744.1253,N,12230.4402,W,0.3,,070512,,,A*61 $GPGGA,204511.00,3744.1252,N,12230.4365,W,1,,,-22.0,M,,,,*1B $GPRMC,204511.00,A,3744.1252,N,12230.4365,W,0.4,,070512,,,A*62 $GPGGA,204526.00,3744.1223,N,12230.4310,W,1,,,-22.0,M,,,,*1B $GPRMC,204526.00,A,3744.1223,N,12230.4310,W,0.2,,070512,,,A*64 $GPGGA,204541.00,3744.1258,N,12230.4371,W,1,,,-25.0,M,,,,*16 $GPRMC,204541.00,A,3744.1258,N,12230.4371,W,0.2,,070512,,,A*6E $GPGGA,204555.00,3744.1258,N,12230.4360,W,1,,,-20.0,M,,,,*16 $GPRMC,204555.00,A,3744.1258,N,12230.4360,W,0.3,,070512,,,A*6A $GPGGA,204610.00,3744.1259,N,12230.4401,W,1,,,-12.0,M,,,,*14 $GPRMC,204610.00,A,3744.1259,N,12230.4401,W,0.1,,070512,,,A*6B $GPGGA,204624.00,3744.1248,N,12230.4353,W,1,,,-16.0,M,,,,*17 $GPRMC,204624.00,A,3744.1248,N,12230.4353,W,0.1,,070512,,,A*6C $GPGGA,204639.00,3744.1268,N,12230.4352,W,1,,,-22.0,M,,,,*1F $GPRMC,204639.00,A,3744.1268,N,12230.4352,W,0.4,,070512,,,A*66 $GPGGA,204653.00,3744.1279,N,12230.4393,W,1,,,-10.0,M,,,,*1F $GPRMC,204653.00,A,3744.1279,N,12230.4393,W,0.2,,070512,,,A*61 $GPGGA,204708.00,3744.1256,N,12230.4378,W,1,,,-14.0,M,,,,*1C $GPRMC,204708.00,A,3744.1256,N,12230.4378,W,0.5,,070512,,,A*61 $GPGGA,204722.00,3744.1215,N,12230.4352,W,1,,,-10.0,M,,,,*1F $GPRMC,204722.00,A,3744.1215,N,12230.4352,W,0.4,,070512,,,A*67 $GPGGA,204737.00,3744.1237,N,12230.4370,W,1,,,-27.0,M,,,,*1F $GPRMC,204737.00,A,3744.1237,N,12230.4370,W,0.4,,070512,,,A*63 $GPGGA,204752.00,3744.1273,N,12230.4412,W,1,,,-20.0,M,,,,*18 $GPRMC,204752.00,A,3744.1273,N,12230.4412,W,0.3,,070512,,,A*64 $GPGGA,204807.00,3744.1250,N,12230.4373,W,1,,,-14.0,M,,,,*11 $GPRMC,204807.00,A,3744.1250,N,12230.4373,W,0.5,,070512,,,A*6C $GPGGA,204821.00,3744.1261,N,12230.4401,W,1,,,-15.0,M,,,,*14 $GPRMC,204821.00,A,3744.1261,N,12230.4401,W,0.9,,070512,,,A*64 $GPGGA,204836.00,3744.1227,N,12230.4363,W,1,,,-18.0,M,,,,*1E $GPRMC,204836.00,A,3744.1227,N,12230.4363,W,1.0,,070512,,,A*6B $GPGGA,204850.00,3744.1247,N,12230.4356,W,1,,,-21.0,M,,,,*14 $GPRMC,204850.00,A,3744.1247,N,12230.4356,W,0.4,,070512,,,A*6E $GPGGA,204905.00,3744.1243,N,12230.4354,W,1,,,-25.0,M,,,,*17 $GPRMC,204905.00,A,3744.1243,N,12230.4354,W,0.3,,070512,,,A*6E $GPGGA,204919.00,3744.1180,N,12230.4315,W,1,,,-16.0,M,,,,*13 $GPRMC,204919.00,A,3744.1180,N,12230.4315,W,4.6,,070512,,,A*6B $GPGGA,204934.00,3744.1170,N,12230.4199,W,1,,,-18.0,M,,,,*1B $GPRMC,204934.00,A,3744.1170,N,12230.4199,W,0.2,,070512,,,A*6D $GPGGA,204949.00,3744.1162,N,12230.4205,W,1,,,-15.0,M,,,,*19 $GPRMC,204949.00,A,3744.1162,N,12230.4205,W,0.1,,070512,,,A*61 $GPGGA,205004.00,3744.1181,N,12230.4252,W,1,,,-20.0,M,,,,*11 $GPRMC,205004.00,A,3744.1181,N,12230.4252,W,0.1,,070512,,,A*6F $GPGGA,205019.00,3744.1201,N,12230.4225,W,1,,,-24.0,M,,,,*12 $GPRMC,205019.00,A,3744.1201,N,12230.4225,W,0.2,,070512,,,A*6B $GPGGA,205033.00,3744.1218,N,12230.4228,W,1,,,-22.0,M,,,,*19 $GPRMC,205033.00,A,3744.1218,N,12230.4228,W,0.2,,070512,,,A*66 $GPGGA,205048.00,3744.1172,N,12230.4000,W,1,,,-9.0,M,,,,*2B $GPRMC,205048.00,A,3744.1172,N,12230.4000,W,8.4,,070512,,,A*63 $GPGGA,205103.00,3744.1192,N,12230.3428,W,1,,,-11.0,M,,,,*1B $GPRMC,205103.00,A,3744.1192,N,12230.3428,W,12.4,,070512,,,A*51 $GPGGA,205118.00,3744.1178,N,12230.2850,W,1,,,-20.0,M,,,,*15 $GPRMC,205118.00,A,3744.1178,N,12230.2850,W,11.6,,070512,,,A*5C $GPGGA,205132.00,3744.1221,N,12230.2270,W,1,,,-27.0,M,,,,*1D $GPRMC,205132.00,A,3744.1221,N,12230.2270,W,9.7,,070512,,,A*6B $GPGGA,205147.00,3744.1219,N,12230.1777,W,1,,,-19.0,M,,,,*18 $GPRMC,205147.00,A,3744.1219,N,12230.1777,W,9.6,,070512,,,A*62 $GPGGA,205201.00,3744.1201,N,12230.1275,W,1,,,-15.0,M,,,,*1B $GPRMC,205201.00,A,3744.1201,N,12230.1275,W,9.0,,070512,,,A*6B $GPGGA,205216.00,3744.1088,N,12230.0859,W,1,,,-10.0,M,,,,*1E $GPRMC,205216.00,A,3744.1088,N,12230.0859,W,8.5,,070512,,,A*6F $GPGGA,205230.00,3744.0987,N,12230.0546,W,1,,,-9.0,M,,,,*26 $GPRMC,205230.00,A,3744.0987,N,12230.0546,W,7.3,,070512,,,A*66 $GPGGA,205246.00,3744.0807,N,12230.0133,W,1,,,-8.0,M,,,,*29 $GPRMC,205246.00,A,3744.0807,N,12230.0133,W,7.2,,070512,,,A*69 $GPGGA,205300.00,3744.0669,N,12229.9818,W,1,,,-2.0,M,,,,*27 $GPRMC,205300.00,A,3744.0669,N,12229.9818,W,7.9,,070512,,,A*66 $GPGGA,205315.00,3744.0514,N,12229.9462,W,1,,,0.0,M,,,,*04 $GPRMC,205315.00,A,3744.0514,N,12229.9462,W,8.5,,070512,,,A*69 $GPGGA,205330.00,3744.0333,N,12229.9020,W,1,,,2.0,M,,,,*00 $GPRMC,205330.00,A,3744.0333,N,12229.9020,W,8.3,,070512,,,A*69 $GPGGA,205344.00,3744.0228,N,12229.8645,W,1,,,-2.0,M,,,,*21 $GPRMC,205344.00,A,3744.0228,N,12229.8645,W,7.5,,070512,,,A*6C $GPGGA,205359.00,3744.0204,N,12229.8271,W,1,,,-1.0,M,,,,*23 $GPRMC,205359.00,A,3744.0204,N,12229.8271,W,7.1,,070512,,,A*69 $GPGGA,205413.00,3744.0183,N,12229.7812,W,1,,,-8.0,M,,,,*2F $GPRMC,205413.00,A,3744.0183,N,12229.7812,W,7.4,,070512,,,A*69 $GPGGA,205429.00,3744.0223,N,12229.7382,W,1,,,-9.0,M,,,,*2C $GPRMC,205429.00,A,3744.0223,N,12229.7382,W,7.5,,070512,,,A*6A $GPGGA,205443.00,3744.0217,N,12229.7035,W,1,,,-12.0,M,,,,*12 $GPRMC,205443.00,A,3744.0217,N,12229.7035,W,6.8,,070512,,,A*62 $GPGGA,205459.00,3744.0323,N,12229.6683,W,1,,,-3.0,M,,,,*25 $GPRMC,205459.00,A,3744.0323,N,12229.6683,W,6.9,,070512,,,A*64 $GPGGA,205513.00,3744.0325,N,12229.6373,W,1,,,17.0,M,,,,*3E $GPRMC,205513.00,A,3744.0325,N,12229.6373,W,6.9,,070512,,,A*67 $GPGGA,205528.00,3744.0300,N,12229.6012,W,1,,,14.0,M,,,,*36 $GPRMC,205528.00,A,3744.0300,N,12229.6012,W,7.1,,070512,,,A*65 $GPGGA,205543.00,3744.0268,N,12229.5615,W,1,,,9.0,M,,,,*0A $GPRMC,205543.00,A,3744.0268,N,12229.5615,W,6.8,,070512,,,A*6D $GPGGA,205557.00,3744.0324,N,12229.5257,W,1,,,6.0,M,,,,*0B $GPRMC,205557.00,A,3744.0324,N,12229.5257,W,6.8,,070512,,,A*63 $GPGGA,205612.00,3744.0311,N,12229.4944,W,1,,,7.0,M,,,,*06 $GPRMC,205612.00,A,3744.0311,N,12229.4944,W,4.5,,070512,,,A*60 $GPGGA,205627.00,3744.0329,N,12229.4593,W,1,,,9.0,M,,,,*03 $GPRMC,205627.00,A,3744.0329,N,12229.4593,W,8.5,,070512,,,A*67 $GPGGA,205641.00,3744.0379,N,12229.4167,W,1,,,16.0,M,,,,*37 $GPRMC,205641.00,A,3744.0379,N,12229.4167,W,8.8,,070512,,,A*60 $GPGGA,205656.00,3744.0380,N,12229.3772,W,1,,,11.0,M,,,,*35 $GPRMC,205656.00,A,3744.0380,N,12229.3772,W,8.2,,070512,,,A*6F $GPGGA,205710.00,3744.0441,N,12229.3398,W,1,,,14.0,M,,,,*39 $GPRMC,205710.00,A,3744.0441,N,12229.3398,W,6.6,,070512,,,A*6C $GPGGA,205725.00,3744.0508,N,12229.3884,W,1,,,16.0,M,,,,*37 $GPRMC,205725.00,A,3744.0508,N,12229.3884,W,9.4,,070512,,,A*6D $GPGGA,205740.00,3744.0495,N,12229.4384,W,1,,,19.0,M,,,,*32 $GPRMC,205740.00,A,3744.0495,N,12229.4384,W,8.8,,070512,,,A*6A $GPGGA,205754.00,3744.0465,N,12229.4921,W,1,,,18.0,M,,,,*3C $GPRMC,205754.00,A,3744.0465,N,12229.4921,W,11.7,,070512,,,A*52 $GPGGA,205809.00,3744.0528,N,12229.5537,W,1,,,19.0,M,,,,*38 $GPRMC,205809.00,A,3744.0528,N,12229.5537,W,12.1,,070512,,,A*52 $GPGGA,205824.00,3744.0438,N,12229.6134,W,1,,,12.0,M,,,,*38 $GPRMC,205824.00,A,3744.0438,N,12229.6134,W,12.4,,070512,,,A*5C $GPGGA,205839.00,3744.0416,N,12229.6860,W,1,,,21.0,M,,,,*30 $GPRMC,205839.00,A,3744.0416,N,12229.6860,W,13.9,,070512,,,A*58 $GPGGA,205854.00,3744.0324,N,12229.7543,W,1,,,20.0,M,,,,*31 $GPRMC,205854.00,A,3744.0324,N,12229.7543,W,13.8,,070512,,,A*59 $GPGGA,205908.00,3744.0359,N,12229.8293,W,1,,,15.0,M,,,,*30 $GPRMC,205908.00,A,3744.0359,N,12229.8293,W,14.6,,070512,,,A*57 $GPGGA,205923.00,3744.0438,N,12229.8940,W,1,,,14.0,M,,,,*3D $GPRMC,205923.00,A,3744.0438,N,12229.8940,W,12.5,,070512,,,A*5E $GPGGA,205937.00,3744.0660,N,12229.9336,W,1,,,6.0,M,,,,*0E $GPRMC,205937.00,A,3744.0660,N,12229.9336,W,5.7,,070512,,,A*6A $GPGGA,205952.00,3744.0691,N,12229.9510,W,1,,,5.0,M,,,,*02 $GPRMC,205952.00,A,3744.0691,N,12229.9510,W,0.4,,070512,,,A*63 $GPGGA,210006.00,3744.0678,N,12229.9537,W,1,,,1.0,M,,,,*08 $GPRMC,210006.00,A,3744.0678,N,12229.9537,W,5.9,,070512,,,A*65 $GPGGA,210021.00,3744.0523,N,12229.9421,W,1,,,-2.0,M,,,,*28 $GPRMC,210021.00,A,3744.0523,N,12229.9421,W,3.9,,070512,,,A*6D $GPGGA,210035.00,3744.0484,N,12229.9414,W,1,,,-5.0,M,,,,*20 $GPRMC,210035.00,A,3744.0484,N,12229.9414,W,1.2,,070512,,,A*6B $GPGGA,210050.00,3744.0351,N,12229.9071,W,1,,,1.0,M,,,,*02 $GPRMC,210050.00,A,3744.0351,N,12229.9071,W,13.4,,070512,,,A*55 $GPGGA,210105.00,3744.0207,N,12229.8422,W,1,,,-9.0,M,,,,*27 $GPRMC,210105.00,A,3744.0207,N,12229.8422,W,11.2,,070512,,,A*51 $GPGGA,210120.00,3744.0207,N,12229.7928,W,1,,,-7.0,M,,,,*26 $GPRMC,210120.00,A,3744.0207,N,12229.7928,W,9.2,,070512,,,A*67 $GPGGA,210134.00,3744.0217,N,12229.7547,W,1,,,-9.0,M,,,,*29 $GPRMC,210134.00,A,3744.0217,N,12229.7547,W,8.0,,070512,,,A*65 $GPGGA,210150.00,3744.0270,N,12229.7058,W,1,,,-1.0,M,,,,*29 $GPRMC,210150.00,A,3744.0270,N,12229.7058,W,7.8,,070512,,,A*6A $GPGGA,210204.00,3744.0267,N,12229.6746,W,1,,,16.0,M,,,,*3F $GPRMC,210204.00,A,3744.0267,N,12229.6746,W,6.5,,070512,,,A*6B $GPGGA,210219.00,3744.0287,N,12229.6390,W,1,,,1.0,M,,,,*04 $GPRMC,210219.00,A,3744.0287,N,12229.6390,W,7.2,,070512,,,A*60 $GPGGA,210234.00,3744.0288,N,12229.6008,W,1,,,8.0,M,,,,*0F $GPRMC,210234.00,A,3744.0288,N,12229.6008,W,7.8,,070512,,,A*68 $GPGGA,210250.00,3744.0321,N,12229.5587,W,1,,,6.0,M,,,,*00 $GPRMC,210250.00,A,3744.0321,N,12229.5587,W,7.7,,070512,,,A*66 $GPGGA,210305.00,3744.0310,N,12229.5206,W,1,,,4.0,M,,,,*0F $GPRMC,210305.00,A,3744.0310,N,12229.5206,W,7.2,,070512,,,A*6E $GPGGA,210319.00,3744.0288,N,12229.5034,W,1,,,10.0,M,,,,*34 $GPRMC,210319.00,A,3744.0288,N,12229.5034,W,0.2,,070512,,,A*67 $GPGGA,210333.00,3744.0301,N,12229.4915,W,1,,,5.0,M,,,,*03 $GPRMC,210333.00,A,3744.0301,N,12229.4915,W,7.0,,070512,,,A*61 $GPGGA,210348.00,3744.0401,N,12229.4499,W,1,,,-3.0,M,,,,*2A $GPRMC,210348.00,A,3744.0401,N,12229.4499,W,7.8,,070512,,,A*6B $GPGGA,210402.00,3744.0368,N,12229.4027,W,1,,,0.0,M,,,,*04 $GPRMC,210402.00,A,3744.0368,N,12229.4027,W,8.9,,070512,,,A*65 $GPGGA,210417.00,3744.0393,N,12229.3599,W,1,,,3.0,M,,,,*00 $GPRMC,210417.00,A,3744.0393,N,12229.3599,W,10.7,,070512,,,A*55 $GPGGA,210432.00,3744.0421,N,12229.3012,W,1,,,6.0,M,,,,*0A $GPRMC,210432.00,A,3744.0421,N,12229.3012,W,12.1,,070512,,,A*5E $GPGGA,210447.00,3744.0431,N,12229.2426,W,1,,,-6.0,M,,,,*26 $GPRMC,210447.00,A,3744.0431,N,12229.2426,W,11.3,,070512,,,A*5E $GPGGA,210502.00,3744.0498,N,12229.1774,W,1,,,12.0,M,,,,*3A $GPRMC,210502.00,A,3744.0498,N,12229.1774,W,11.7,,070512,,,A*5E $GPGGA,210517.00,3744.0523,N,12229.1169,W,1,,,13.0,M,,,,*34 $GPRMC,210517.00,A,3744.0523,N,12229.1169,W,11.1,,070512,,,A*57 $GPGGA,210532.00,3744.0551,N,12229.0649,W,1,,,25.0,M,,,,*37 $GPRMC,210532.00,A,3744.0551,N,12229.0649,W,9.3,,070512,,,A*6A $GPGGA,210547.00,3744.0573,N,12229.0251,W,1,,,20.0,M,,,,*3D $GPRMC,210547.00,A,3744.0573,N,12229.0251,W,7.6,,070512,,,A*6E $GPGGA,210601.00,3744.0563,N,12228.9816,W,1,,,22.0,M,,,,*3E $GPRMC,210601.00,A,3744.0563,N,12228.9816,W,7.7,,070512,,,A*6E $GPGGA,210615.00,3744.0580,N,12228.9451,W,1,,,13.0,M,,,,*3B $GPRMC,210615.00,A,3744.0580,N,12228.9451,W,7.1,,070512,,,A*6F $GPGGA,210630.00,3744.0596,N,12228.9065,W,1,,,22.0,M,,,,*3A $GPRMC,210630.00,A,3744.0596,N,12228.9065,W,6.9,,070512,,,A*65 $GPGGA,210644.00,3744.0637,N,12228.8739,W,1,,,20.0,M,,,,*3C $GPRMC,210644.00,A,3744.0637,N,12228.8739,W,6.7,,070512,,,A*6F $GPGGA,210659.00,3744.0656,N,12228.8383,W,1,,,24.0,M,,,,*36 $GPRMC,210659.00,A,3744.0656,N,12228.8383,W,7.1,,070512,,,A*66 $GPGGA,210713.00,3744.0655,N,12228.8062,W,1,,,31.0,M,,,,*32 $GPRMC,210713.00,A,3744.0655,N,12228.8062,W,7.3,,070512,,,A*64 $GPGGA,210728.00,3744.0653,N,12228.7708,W,1,,,29.0,M,,,,*31 $GPRMC,210728.00,A,3744.0653,N,12228.7708,W,6.7,,070512,,,A*6B $GPGGA,210742.00,3744.0747,N,12228.7313,W,1,,,20.0,M,,,,*3E $GPRMC,210742.00,A,3744.0747,N,12228.7313,W,7.1,,070512,,,A*6A $GPGGA,210756.00,3744.0713,N,12228.6962,W,1,,,33.0,M,,,,*35 $GPRMC,210756.00,A,3744.0713,N,12228.6962,W,7.2,,070512,,,A*60 $GPGGA,210811.00,3744.0702,N,12228.6634,W,1,,,35.0,M,,,,*33 $GPRMC,210811.00,A,3744.0702,N,12228.6634,W,7.1,,070512,,,A*63 $GPGGA,210825.00,3744.0702,N,12228.6332,W,1,,,34.0,M,,,,*36 $GPRMC,210825.00,A,3744.0702,N,12228.6332,W,5.9,,070512,,,A*6D $GPGGA,210841.00,3744.0766,N,12228.5983,W,1,,,28.0,M,,,,*38 $GPRMC,210841.00,A,3744.0766,N,12228.5983,W,6.3,,070512,,,A*67 $GPGGA,210855.00,3744.0755,N,12228.5698,W,1,,,47.0,M,,,,*31 $GPRMC,210855.00,A,3744.0755,N,12228.5698,W,6.2,,070512,,,A*66 $GPGGA,210910.00,3744.0700,N,12228.5535,W,1,,,45.0,M,,,,*37 $GPRMC,210910.00,A,3744.0700,N,12228.5535,W,1.4,,070512,,,A*63 $GPGGA,210924.00,3744.0757,N,12228.5494,W,1,,,48.0,M,,,,*35 $GPRMC,210924.00,A,3744.0757,N,12228.5494,W,0.4,,070512,,,A*6D $GPGGA,210939.00,3744.0730,N,12228.5461,W,1,,,40.0,M,,,,*3A $GPRMC,210939.00,A,3744.0730,N,12228.5461,W,0.4,,070512,,,A*6A